sensor_id;sensor_type;location;lat;lon;timestamp;temperature;humidity
2459;DHT22;1241;50.920;6.936;2022-12-29T00:02:07;11.80;99.90
2459;DHT22;1241;50.920;6.936;2022-12-29T00:04:36;11.80;99.90
2459;DHT22;1241;50.920;6.936;2022-12-29T00:07:01;11.80;99.90
2459;DHT22;1241;50.920;6.936;2022-12-29T00:09:30;11.70;99.90
2459;DHT22;1241;50.920;6.936;2022-12-29T00:11:57;11.70;99.90
2459;DHT22;1241;50.920;6.936;2022-12-29T00:14:22;11.70;99.90
2459;DHT22;1241;50.920;6.936;2022-12-29T00:17:07;11.70;99.90
2459;DHT22;1241;50.920;6.936;2022-12-29T00:19:32;11.70;99.90
2459;DHT22;1241;50.920;6.936;2022-12-29T00:22:16;11.80;99.90
2459;DHT22;1241;50.920;6.936;2022-12-29T00:25:01;11.80;99.90
2459;DHT22;1241;50.920;6.936;2022-12-29T00:27:46;11.80;99.90
2459;DHT22;1241;50.920;6.936;2022-12-29T00:30:30;11.80;99.90
2459;DHT22;1241;50.920;6.936;2022-12-29T00:33:20;11.80;99.90
2459;DHT22;1241;50.920;6.936;2022-12-29T00:36:25;11.90;99.90
2459;DHT22;1241;50.920;6.936;2022-12-29T00:39:01;11.90;99.90
2459;DHT22;1241;50.920;6.936;2022-12-29T00:41:47;11.90;99.90
2459;DHT22;1241;50.920;6.936;2022-12-29T00:44:31;11.90;99.90
2459;DHT22;1241;50.920;6.936;2022-12-29T00:46:57;11.90;99.90
2459;DHT22;1241;50.920;6.936;2022-12-29T00:49:27;11.90;99.90
2459;DHT22;1241;50.920;6.936;2022-12-29T00:52:05;12.00;99.90
2459;DHT22;1241;50.920;6.936;2022-12-29T00:54:37;12.00;99.90
2459;DHT22;1241;50.920;6.936;2022-12-29T00:57:04;12.10;99.90
2459;DHT22;1241;50.920;6.936;2022-12-29T00:59:30;12.20;99.90
2459;DHT22;1241;50.920;6.936;2022-12-29T01:01:57;12.30;99.90
2459;DHT22;1241;50.920;6.936;2022-12-29T01:04:24;12.30;99.90
2459;DHT22;1241;50.920;6.936;2022-12-29T01:06:50;12.30;99.90
2459;DHT22;1241;50.920;6.936;2022-12-29T01:09:17;12.30;99.90
2459;DHT22;1241;50.920;6.936;2022-12-29T01:12:06;12.30;99.90
2459;DHT22;1241;50.920;6.936;2022-12-29T01:14:32;12.10;99.90
2459;DHT22;1241;50.920;6.936;2022-12-29T01:16:58;12.10;99.90
2459;DHT22;1241;50.920;6.936;2022-12-29T01:19:24;12.10;99.90
2459;DHT22;1241;50.920;6.936;2022-12-29T01:21:50;12.10;99.90
2459;DHT22;1241;50.920;6.936;2022-12-29T01:24:19;12.20;99.90
2459;DHT22;1241;50.920;6.936;2022-12-29T01:26:46;12.20;99.90
2459;DHT22;1241;50.920;6.936;2022-12-29T01:29:12;12.20;99.90
2459;DHT22;1241;50.920;6.936;2022-12-29T01:31:38;12.20;99.90
2459;DHT22;1241;50.920;6.936;2022-12-29T01:34:04;12.20;99.90
2459;DHT22;1241;50.920;6.936;2022-12-29T01:36:31;12.20;99.90
2459;DHT22;1241;50.920;6.936;2022-12-29T01:38:57;12.20;99.90
2459;DHT22;1241;50.920;6.936;2022-12-29T01:41:23;12.30;99.90
2459;DHT22;1241;50.920;6.936;2022-12-29T01:43:57;12.30;99.90
2459;DHT22;1241;50.920;6.936;2022-12-29T01:49:21;12.40;99.90
2459;DHT22;1241;50.920;6.936;2022-12-29T01:51:52;12.50;99.90
2459;DHT22;1241;50.920;6.936;2022-12-29T01:54:36;12.50;99.90
2459;DHT22;1241;50.920;6.936;2022-12-29T01:57:17;12.40;99.90
2459;DHT22;1241;50.920;6.936;2022-12-29T01:59:50;12.40;99.90
2459;DHT22;1241;50.920;6.936;2022-12-29T02:02:17;12.40;99.90
2459;DHT22;1241;50.920;6.936;2022-12-29T02:04:43;12.50;99.90
2459;DHT22;1241;50.920;6.936;2022-12-29T02:07:15;12.50;99.90
2459;DHT22;1241;50.920;6.936;2022-12-29T02:09:42;12.50;99.90
2459;DHT22;1241;50.920;6.936;2022-12-29T02:12:09;12.50;99.90
2459;DHT22;1241;50.920;6.936;2022-12-29T02:14:35;12.40;99.90
2459;DHT22;1241;50.920;6.936;2022-12-29T02:17:13;12.30;99.90
2459;DHT22;1241;50.920;6.936;2022-12-29T02:27:28;12.30;99.90
2459;DHT22;1241;50.920;6.936;2022-12-29T02:30:12;12.40;99.90
2459;DHT22;1241;50.920;6.936;2022-12-29T02:35:37;12.50;99.90
2459;DHT22;1241;50.920;6.936;2022-12-29T02:38:41;12.60;99.90
2459;DHT22;1241;50.920;6.936;2022-12-29T02:46:44;12.70;99.90
2459;DHT22;1241;50.920;6.936;2022-12-29T02:49:33;12.70;99.90
2459;DHT22;1241;50.920;6.936;2022-12-29T02:52:15;12.70;99.90
2459;DHT22;1241;50.920;6.936;2022-12-29T02:54:42;12.60;99.90
2459;DHT22;1241;50.920;6.936;2022-12-29T02:57:14;12.70;99.90
2459;DHT22;1241;50.920;6.936;2022-12-29T02:59:42;12.70;99.90
2459;DHT22;1241;50.920;6.936;2022-12-29T03:08:04;12.60;99.90
2459;DHT22;1241;50.920;6.936;2022-12-29T03:18:58;12.60;99.90
2459;DHT22;1241;50.920;6.936;2022-12-29T03:21:34;12.60;99.90
2459;DHT22;1241;50.920;6.936;2022-12-29T03:24:27;12.60;99.90
2459;DHT22;1241;50.920;6.936;2022-12-29T03:27:02;12.60;99.90
2459;DHT22;1241;50.920;6.936;2022-12-29T03:29:39;12.60;99.90
2459;DHT22;1241;50.920;6.936;2022-12-29T03:32:07;12.60;99.90
2459;DHT22;1241;50.920;6.936;2022-12-29T03:34:35;12.60;99.90
2459;DHT22;1241;50.920;6.936;2022-12-29T03:37:12;12.60;99.90
2459;DHT22;1241;50.920;6.936;2022-12-29T03:39:39;12.50;99.90
2459;DHT22;1241;50.920;6.936;2022-12-29T03:42:16;12.50;99.90
2459;DHT22;1241;50.920;6.936;2022-12-29T03:44:44;12.50;99.90
2459;DHT22;1241;50.920;6.936;2022-12-29T03:47:14;12.40;99.90
2459;DHT22;1241;50.920;6.936;2022-12-29T03:49:40;12.40;99.90
2459;DHT22;1241;50.920;6.936;2022-12-29T03:52:07;12.40;99.90
2459;DHT22;1241;50.920;6.936;2022-12-29T03:54:38;12.40;99.90
2459;DHT22;1241;50.920;6.936;2022-12-29T03:57:04;12.30;99.90
2459;DHT22;1241;50.920;6.936;2022-12-29T03:59:42;12.20;99.90
2459;DHT22;1241;50.920;6.936;2022-12-29T04:02:08;12.10;99.90
2459;DHT22;1241;50.920;6.936;2022-12-29T04:04:34;11.90;99.90
2459;DHT22;1241;50.920;6.936;2022-12-29T04:06:59;11.90;99.90
2459;DHT22;1241;50.920;6.936;2022-12-29T04:09:26;11.80;99.90
2459;DHT22;1241;50.920;6.936;2022-12-29T04:11:52;11.70;99.90
2459;DHT22;1241;50.920;6.936;2022-12-29T04:14:18;11.70;99.90
2459;DHT22;1241;50.920;6.936;2022-12-29T04:16:44;11.60;99.90
2459;DHT22;1241;50.920;6.936;2022-12-29T04:19:10;11.60;99.90
2459;DHT22;1241;50.920;6.936;2022-12-29T04:21:36;11.50;99.90
2459;DHT22;1241;50.920;6.936;2022-12-29T04:24:03;11.40;99.90
2459;DHT22;1241;50.920;6.936;2022-12-29T04:26:33;11.40;99.90
2459;DHT22;1241;50.920;6.936;2022-12-29T04:29:12;11.40;99.90
2459;DHT22;1241;50.920;6.936;2022-12-29T04:31:54;11.30;99.90
2459;DHT22;1241;50.920;6.936;2022-12-29T04:34:20;11.30;99.90
2459;DHT22;1241;50.920;6.936;2022-12-29T04:36:47;11.30;99.90
2459;DHT22;1241;50.920;6.936;2022-12-29T04:39:12;11.30;99.90
2459;DHT22;1241;50.920;6.936;2022-12-29T04:41:40;11.30;99.90
2459;DHT22;1241;50.920;6.936;2022-12-29T04:44:09;11.30;99.90
2459;DHT22;1241;50.920;6.936;2022-12-29T04:46:56;11.30;99.90
2459;DHT22;1241;50.920;6.936;2022-12-29T04:49:42;11.50;99.90
2459;DHT22;1241;50.920;6.936;2022-12-29T04:52:26;11.60;99.90
2459;DHT22;1241;50.920;6.936;2022-12-29T04:54:52;11.80;99.90
2459;DHT22;1241;50.920;6.936;2022-12-29T04:57:19;11.90;99.90
2459;DHT22;1241;50.920;6.936;2022-12-29T04:59:50;11.90;99.90
2459;DHT22;1241;50.920;6.936;2022-12-29T05:02:16;11.90;99.90
2459;DHT22;1241;50.920;6.936;2022-12-29T05:04:44;12.00;99.90
2459;DHT22;1241;50.920;6.936;2022-12-29T05:07:10;12.00;99.90
2459;DHT22;1241;50.920;6.936;2022-12-29T05:09:36;11.90;99.90
2459;DHT22;1241;50.920;6.936;2022-12-29T05:12:02;11.90;99.90
2459;DHT22;1241;50.920;6.936;2022-12-29T05:14:31;11.80;99.90
2459;DHT22;1241;50.920;6.936;2022-12-29T05:16:56;11.80;99.90
2459;DHT22;1241;50.920;6.936;2022-12-29T05:19:23;11.80;99.90
2459;DHT22;1241;50.920;6.936;2022-12-29T05:21:49;11.80;99.90
2459;DHT22;1241;50.920;6.936;2022-12-29T05:24:15;11.80;99.90
2459;DHT22;1241;50.920;6.936;2022-12-29T05:26:41;11.80;99.90
2459;DHT22;1241;50.920;6.936;2022-12-29T05:29:30;11.80;99.90
2459;DHT22;1241;50.920;6.936;2022-12-29T05:31:57;11.80;99.90
2459;DHT22;1241;50.920;6.936;2022-12-29T05:34:23;11.80;99.90
2459;DHT22;1241;50.920;6.936;2022-12-29T05:36:48;11.90;99.90
2459;DHT22;1241;50.920;6.936;2022-12-29T05:39:14;11.90;99.90
2459;DHT22;1241;50.920;6.936;2022-12-29T05:41:44;11.90;99.90
2459;DHT22;1241;50.920;6.936;2022-12-29T05:44:45;11.90;99.90
2459;DHT22;1241;50.920;6.936;2022-12-29T05:47:16;11.90;99.90
2459;DHT22;1241;50.920;6.936;2022-12-29T05:49:48;12.00;99.90
2459;DHT22;1241;50.920;6.936;2022-12-29T05:52:39;11.90;99.90
2459;DHT22;1241;50.920;6.936;2022-12-29T05:55:06;12.00;99.90
2459;DHT22;1241;50.920;6.936;2022-12-29T05:57:35;12.10;99.90
2459;DHT22;1241;50.920;6.936;2022-12-29T06:00:13;12.10;99.90
2459;DHT22;1241;50.920;6.936;2022-12-29T06:02:43;12.10;99.90
2459;DHT22;1241;50.920;6.936;2022-12-29T06:05:09;12.10;99.90
2459;DHT22;1241;50.920;6.936;2022-12-29T06:07:36;12.20;99.90
2459;DHT22;1241;50.920;6.936;2022-12-29T06:10:04;12.20;99.90
2459;DHT22;1241;50.920;6.936;2022-12-29T06:12:35;12.20;99.90
2459;DHT22;1241;50.920;6.936;2022-12-29T06:15:01;12.20;99.90
2459;DHT22;1241;50.920;6.936;2022-12-29T06:17:27;12.30;99.90
2459;DHT22;1241;50.920;6.936;2022-12-29T06:19:54;12.30;99.90
2459;DHT22;1241;50.920;6.936;2022-12-29T06:22:19;12.40;99.90
2459;DHT22;1241;50.920;6.936;2022-12-29T06:24:45;12.40;99.90
2459;DHT22;1241;50.920;6.936;2022-12-29T06:27:12;12.40;99.90
2459;DHT22;1241;50.920;6.936;2022-12-29T06:29:39;12.50;99.90
2459;DHT22;1241;50.920;6.936;2022-12-29T06:32:07;12.50;99.90
2459;DHT22;1241;50.920;6.936;2022-12-29T06:34:33;12.50;99.90
2459;DHT22;1241;50.920;6.936;2022-12-29T06:36:58;12.60;99.90
2459;DHT22;1241;50.920;6.936;2022-12-29T06:39:24;12.50;99.90
2459;DHT22;1241;50.920;6.936;2022-12-29T06:42:10;12.40;99.90
2459;DHT22;1241;50.920;6.936;2022-12-29T06:44:44;12.40;99.90
2459;DHT22;1241;50.920;6.936;2022-12-29T06:47:10;12.40;99.90
2459;DHT22;1241;50.920;6.936;2022-12-29T06:49:35;12.50;99.90
2459;DHT22;1241;50.920;6.936;2022-12-29T06:52:01;12.50;99.90
2459;DHT22;1241;50.920;6.936;2022-12-29T06:54:30;12.40;99.90
2459;DHT22;1241;50.920;6.936;2022-12-29T06:56:55;12.40;99.90
2459;DHT22;1241;50.920;6.936;2022-12-29T06:59:21;12.50;99.90
2459;DHT22;1241;50.920;6.936;2022-12-29T07:01:47;12.30;99.90
2459;DHT22;1241;50.920;6.936;2022-12-29T07:04:13;12.30;99.90
2459;DHT22;1241;50.920;6.936;2022-12-29T07:06:38;12.30;99.90
2459;DHT22;1241;50.920;6.936;2022-12-29T07:09:06;12.40;99.90
2459;DHT22;1241;50.920;6.936;2022-12-29T07:11:32;12.40;99.90
2459;DHT22;1241;50.920;6.936;2022-12-29T07:13:57;12.40;99.90
2459;DHT22;1241;50.920;6.936;2022-12-29T07:16:23;12.30;99.90
2459;DHT22;1241;50.920;6.936;2022-12-29T07:18:49;12.30;99.90
2459;DHT22;1241;50.920;6.936;2022-12-29T07:21:14;12.30;99.90
2459;DHT22;1241;50.920;6.936;2022-12-29T07:23:40;12.30;99.90
2459;DHT22;1241;50.920;6.936;2022-12-29T07:26:07;12.20;99.90
2459;DHT22;1241;50.920;6.936;2022-12-29T07:28:35;12.30;99.90
2459;DHT22;1241;50.920;6.936;2022-12-29T07:31:01;12.30;99.90
2459;DHT22;1241;50.920;6.936;2022-12-29T07:33:30;12.20;99.90
2459;DHT22;1241;50.920;6.936;2022-12-29T07:35:56;12.20;99.90
2459;DHT22;1241;50.920;6.936;2022-12-29T07:38:22;12.20;99.90
2459;DHT22;1241;50.920;6.936;2022-12-29T07:40:48;12.20;99.90
2459;DHT22;1241;50.920;6.936;2022-12-29T07:43:13;12.10;99.90
2459;DHT22;1241;50.920;6.936;2022-12-29T07:45:48;12.10;99.90
2459;DHT22;1241;50.920;6.936;2022-12-29T07:48:16;12.10;99.90
2459;DHT22;1241;50.920;6.936;2022-12-29T07:50:41;12.10;99.90
2459;DHT22;1241;50.920;6.936;2022-12-29T07:53:07;12.10;99.90
2459;DHT22;1241;50.920;6.936;2022-12-29T07:55:33;12.10;99.90
2459;DHT22;1241;50.920;6.936;2022-12-29T07:57:58;12.10;99.90
2459;DHT22;1241;50.920;6.936;2022-12-29T08:00:24;12.10;99.90
2459;DHT22;1241;50.920;6.936;2022-12-29T08:02:51;12.10;99.90
2459;DHT22;1241;50.920;6.936;2022-12-29T08:05:17;12.10;99.90
2459;DHT22;1241;50.920;6.936;2022-12-29T08:07:44;12.10;99.90
2459;DHT22;1241;50.920;6.936;2022-12-29T08:10:11;12.10;99.90
2459;DHT22;1241;50.920;6.936;2022-12-29T08:12:40;12.10;99.90
2459;DHT22;1241;50.920;6.936;2022-12-29T08:15:07;12.10;99.90
2459;DHT22;1241;50.920;6.936;2022-12-29T08:17:33;12.00;99.90
2459;DHT22;1241;50.920;6.936;2022-12-29T08:19:59;11.90;99.90
2459;DHT22;1241;50.920;6.936;2022-12-29T08:22:25;11.90;99.90
2459;DHT22;1241;50.920;6.936;2022-12-29T08:24:51;12.00;99.90
2459;DHT22;1241;50.920;6.936;2022-12-29T08:27:18;12.00;99.90
2459;DHT22;1241;50.920;6.936;2022-12-29T08:29:44;12.00;99.90
2459;DHT22;1241;50.920;6.936;2022-12-29T08:32:10;12.00;99.90
2459;DHT22;1241;50.920;6.936;2022-12-29T08:34:35;12.00;99.90
2459;DHT22;1241;50.920;6.936;2022-12-29T08:37:01;12.00;99.90
2459;DHT22;1241;50.920;6.936;2022-12-29T08:39:27;11.90;99.90
2459;DHT22;1241;50.920;6.936;2022-12-29T08:41:53;11.90;99.90
2459;DHT22;1241;50.920;6.936;2022-12-29T08:44:18;11.80;99.90
2459;DHT22;1241;50.920;6.936;2022-12-29T08:46:44;11.70;99.90
2459;DHT22;1241;50.920;6.936;2022-12-29T08:49:10;11.70;99.90
2459;DHT22;1241;50.920;6.936;2022-12-29T08:51:35;11.60;99.90
2459;DHT22;1241;50.920;6.936;2022-12-29T08:54:01;11.60;99.90
2459;DHT22;1241;50.920;6.936;2022-12-29T08:56:27;11.60;99.90
2459;DHT22;1241;50.920;6.936;2022-12-29T08:58:55;11.60;99.90
2459;DHT22;1241;50.920;6.936;2022-12-29T09:01:22;11.50;99.90
2459;DHT22;1241;50.920;6.936;2022-12-29T09:03:48;11.50;99.90
2459;DHT22;1241;50.920;6.936;2022-12-29T09:06:15;11.60;99.90
2459;DHT22;1241;50.920;6.936;2022-12-29T09:08:41;11.60;99.90
2459;DHT22;1241;50.920;6.936;2022-12-29T09:11:17;11.60;99.90
2459;DHT22;1241;50.920;6.936;2022-12-29T09:13:44;11.60;99.90
2459;DHT22;1241;50.920;6.936;2022-12-29T09:16:10;11.60;99.90
2459;DHT22;1241;50.920;6.936;2022-12-29T09:18:36;11.60;99.90
2459;DHT22;1241;50.920;6.936;2022-12-29T09:21:03;11.60;99.90
2459;DHT22;1241;50.920;6.936;2022-12-29T09:23:30;11.60;99.90
2459;DHT22;1241;50.920;6.936;2022-12-29T09:25:56;11.60;99.90
2459;DHT22;1241;50.920;6.936;2022-12-29T09:28:22;11.60;99.90
2459;DHT22;1241;50.920;6.936;2022-12-29T09:30:48;11.60;99.90
2459;DHT22;1241;50.920;6.936;2022-12-29T09:33:14;11.70;99.90
2459;DHT22;1241;50.920;6.936;2022-12-29T09:35:52;11.80;99.90
2459;DHT22;1241;50.920;6.936;2022-12-29T09:38:18;11.90;99.90
2459;DHT22;1241;50.920;6.936;2022-12-29T09:40:48;11.90;99.90
2459;DHT22;1241;50.920;6.936;2022-12-29T09:46:02;12.00;99.90
2459;DHT22;1241;50.920;6.936;2022-12-29T09:48:41;12.10;99.90
2459;DHT22;1241;50.920;6.936;2022-12-29T09:51:13;12.20;99.90
2459;DHT22;1241;50.920;6.936;2022-12-29T09:53:45;12.30;99.90
2459;DHT22;1241;50.920;6.936;2022-12-29T09:56:18;12.30;99.90
2459;DHT22;1241;50.920;6.936;2022-12-29T09:59:04;12.40;99.90
2459;DHT22;1241;50.920;6.936;2022-12-29T10:01:44;12.40;99.90
2459;DHT22;1241;50.920;6.936;2022-12-29T10:04:11;12.50;99.90
2459;DHT22;1241;50.920;6.936;2022-12-29T10:17:46;12.50;99.90
2459;DHT22;1241;50.920;6.936;2022-12-29T10:23:26;12.60;99.90
2459;DHT22;1241;50.920;6.936;2022-12-29T10:25:56;12.70;99.90
2459;DHT22;1241;50.920;6.936;2022-12-29T10:28:50;12.70;99.90
2459;DHT22;1241;50.920;6.936;2022-12-29T10:31:24;12.70;99.90
2459;DHT22;1241;50.920;6.936;2022-12-29T10:33:57;12.80;99.90
2459;DHT22;1241;50.920;6.936;2022-12-29T10:36:35;12.70;99.90
2459;DHT22;1241;50.920;6.936;2022-12-29T10:42:21;12.80;99.90
2459;DHT22;1241;50.920;6.936;2022-12-29T10:44:49;12.80;99.90
2459;DHT22;1241;50.920;6.936;2022-12-29T10:47:19;12.90;99.90
2459;DHT22;1241;50.920;6.936;2022-12-29T10:49:47;12.80;99.90
2459;DHT22;1241;50.920;6.936;2022-12-29T10:52:16;12.90;99.90
2459;DHT22;1241;50.920;6.936;2022-12-29T10:57:27;13.20;99.90
2459;DHT22;1241;50.920;6.936;2022-12-29T10:59:54;13.30;99.90
2459;DHT22;1241;50.920;6.936;2022-12-29T11:02:32;13.30;99.90
2459;DHT22;1241;50.920;6.936;2022-12-29T11:07:47;13.20;99.90
2459;DHT22;1241;50.920;6.936;2022-12-29T11:13:10;13.30;99.90
2459;DHT22;1241;50.920;6.936;2022-12-29T11:15:45;13.40;99.90
2459;DHT22;1241;50.920;6.936;2022-12-29T11:18:22;13.30;99.90
2459;DHT22;1241;50.920;6.936;2022-12-29T11:20:57;13.30;99.90
2459;DHT22;1241;50.920;6.936;2022-12-29T11:23:28;13.40;99.90
2459;DHT22;1241;50.920;6.936;2022-12-29T11:26:14;13.40;99.90
2459;DHT22;1241;50.920;6.936;2022-12-29T11:29:16;13.40;99.90
2459;DHT22;1241;50.920;6.936;2022-12-29T11:31:42;13.40;99.90
2459;DHT22;1241;50.920;6.936;2022-12-29T11:34:08;13.40;99.90
2459;DHT22;1241;50.920;6.936;2022-12-29T11:36:35;13.40;99.90
2459;DHT22;1241;50.920;6.936;2022-12-29T11:39:01;13.40;99.90
2459;DHT22;1241;50.920;6.936;2022-12-29T11:41:29;13.30;99.90
2459;DHT22;1241;50.920;6.936;2022-12-29T11:44:00;13.30;99.90
2459;DHT22;1241;50.920;6.936;2022-12-29T11:46:37;13.30;99.90
2459;DHT22;1241;50.920;6.936;2022-12-29T11:49:04;13.30;99.90
2459;DHT22;1241;50.920;6.936;2022-12-29T11:51:38;13.40;99.90
2459;DHT22;1241;50.920;6.936;2022-12-29T11:54:05;13.40;99.90
2459;DHT22;1241;50.920;6.936;2022-12-29T11:56:35;13.30;99.90
2459;DHT22;1241;50.920;6.936;2022-12-29T11:59:37;13.40;99.90
2459;DHT22;1241;50.920;6.936;2022-12-29T12:04:58;13.10;99.90
2459;DHT22;1241;50.920;6.936;2022-12-29T12:07:46;13.20;99.90
2459;DHT22;1241;50.920;6.936;2022-12-29T12:10:25;13.30;99.90
2459;DHT22;1241;50.920;6.936;2022-12-29T12:15:36;13.60;99.90
2459;DHT22;1241;50.920;6.936;2022-12-29T12:18:09;13.50;99.90
2459;DHT22;1241;50.920;6.936;2022-12-29T12:26:30;13.40;99.90
2459;DHT22;1241;50.920;6.936;2022-12-29T12:28:52;13.30;99.90
2459;DHT22;1241;50.920;6.936;2022-12-29T12:34:36;13.30;99.90
2459;DHT22;1241;50.920;6.936;2022-12-29T12:43:12;13.20;99.90
2459;DHT22;1241;50.920;6.936;2022-12-29T12:46:13;13.20;99.90
2459;DHT22;1241;50.920;6.936;2022-12-29T12:57:17;13.10;99.90
2459;DHT22;1241;50.920;6.936;2022-12-29T13:02:29;13.00;99.90
2459;DHT22;1241;50.920;6.936;2022-12-29T13:10:47;13.00;99.90
2459;DHT22;1241;50.920;6.936;2022-12-29T13:18:35;12.70;99.90
2459;DHT22;1241;50.920;6.936;2022-12-29T13:21:17;12.70;99.90
2459;DHT22;1241;50.920;6.936;2022-12-29T13:23:56;12.70;99.90
2459;DHT22;1241;50.920;6.936;2022-12-29T13:26:36;12.70;99.90
2459;DHT22;1241;50.920;6.936;2022-12-29T13:29:16;12.60;99.90
2459;DHT22;1241;50.920;6.936;2022-12-29T13:31:55;12.60;99.90
2459;DHT22;1241;50.920;6.936;2022-12-29T13:37:18;12.70;99.90
2459;DHT22;1241;50.920;6.936;2022-12-29T13:39:54;12.70;99.90
2459;DHT22;1241;50.920;6.936;2022-12-29T13:42:21;12.70;99.90
2459;DHT22;1241;50.920;6.936;2022-12-29T13:49:51;12.80;99.90
2459;DHT22;1241;50.920;6.936;2022-12-29T13:52:28;12.70;99.90
2459;DHT22;1241;50.920;6.936;2022-12-29T13:55:20;12.70;99.90
2459;DHT22;1241;50.920;6.936;2022-12-29T14:06:25;12.60;99.90
2459;DHT22;1241;50.920;6.936;2022-12-29T14:08:54;12.60;99.90
2459;DHT22;1241;50.920;6.936;2022-12-29T14:11:32;12.60;99.90
2459;DHT22;1241;50.920;6.936;2022-12-29T14:13:59;12.60;99.90
2459;DHT22;1241;50.920;6.936;2022-12-29T14:16:35;12.70;99.90
2459;DHT22;1241;50.920;6.936;2022-12-29T14:19:13;12.60;99.90
2459;DHT22;1241;50.920;6.936;2022-12-29T14:21:41;12.50;99.90
2459;DHT22;1241;50.920;6.936;2022-12-29T14:34:57;12.30;99.90
2459;DHT22;1241;50.920;6.936;2022-12-29T14:42:33;12.20;99.90
2459;DHT22;1241;50.920;6.936;2022-12-29T14:47:40;12.10;99.90
2459;DHT22;1241;50.920;6.936;2022-12-29T14:58:02;11.90;99.90
2459;DHT22;1241;50.920;6.936;2022-12-29T15:00:34;11.90;99.90
2459;DHT22;1241;50.920;6.936;2022-12-29T15:03:07;11.80;99.90
2459;DHT22;1241;50.920;6.936;2022-12-29T15:05:44;11.80;99.90
2459;DHT22;1241;50.920;6.936;2022-12-29T15:08:13;11.70;99.90
2459;DHT22;1241;50.920;6.936;2022-12-29T15:11:00;11.70;99.90
2459;DHT22;1241;50.920;6.936;2022-12-29T15:13:35;11.60;99.90
2459;DHT22;1241;50.920;6.936;2022-12-29T15:16:02;11.60;99.90
2459;DHT22;1241;50.920;6.936;2022-12-29T15:18:32;11.60;99.90
2459;DHT22;1241;50.920;6.936;2022-12-29T15:21:05;11.50;99.90
2459;DHT22;1241;50.920;6.936;2022-12-29T15:23:34;11.40;99.90
2459;DHT22;1241;50.920;6.936;2022-12-29T15:26:05;11.30;99.90
2459;DHT22;1241;50.920;6.936;2022-12-29T15:28:49;11.10;99.90
2459;DHT22;1241;50.920;6.936;2022-12-29T15:31:20;11.00;99.90
2459;DHT22;1241;50.920;6.936;2022-12-29T15:33:52;10.80;99.90
2459;DHT22;1241;50.920;6.936;2022-12-29T15:36:22;10.70;99.90
2459;DHT22;1241;50.920;6.936;2022-12-29T15:38:49;10.60;99.90
2459;DHT22;1241;50.920;6.936;2022-12-29T15:44:45;10.50;99.90
2459;DHT22;1241;50.920;6.936;2022-12-29T15:47:31;10.40;99.90
2459;DHT22;1241;50.920;6.936;2022-12-29T15:50:05;10.40;99.90
2459;DHT22;1241;50.920;6.936;2022-12-29T15:52:33;10.30;99.90
2459;DHT22;1241;50.920;6.936;2022-12-29T15:54:59;10.30;99.90
2459;DHT22;1241;50.920;6.936;2022-12-29T15:57:36;10.30;99.90
2459;DHT22;1241;50.920;6.936;2022-12-29T16:00:03;10.20;99.90
2459;DHT22;1241;50.920;6.936;2022-12-29T16:02:39;10.10;99.90
2459;DHT22;1241;50.920;6.936;2022-12-29T16:05:09;10.10;99.90
2459;DHT22;1241;50.920;6.936;2022-12-29T16:07:35;10.00;99.90
2459;DHT22;1241;50.920;6.936;2022-12-29T16:10:02;10.00;99.90
2459;DHT22;1241;50.920;6.936;2022-12-29T16:12:33;9.90;99.90
2459;DHT22;1241;50.920;6.936;2022-12-29T16:15:02;9.90;99.90
2459;DHT22;1241;50.920;6.936;2022-12-29T16:17:31;9.90;99.90
2459;DHT22;1241;50.920;6.936;2022-12-29T16:20:00;9.80;99.90
2459;DHT22;1241;50.920;6.936;2022-12-29T16:22:40;9.70;99.90
2459;DHT22;1241;50.920;6.936;2022-12-29T16:27:45;9.60;99.90
2459;DHT22;1241;50.920;6.936;2022-12-29T16:30:21;9.60;99.90
2459;DHT22;1241;50.920;6.936;2022-12-29T16:32:49;9.60;99.90
2459;DHT22;1241;50.920;6.936;2022-12-29T16:37:44;9.50;99.90
2459;DHT22;1241;50.920;6.936;2022-12-29T16:40:28;9.60;99.90
2459;DHT22;1241;50.920;6.936;2022-12-29T16:42:58;9.60;99.90
2459;DHT22;1241;50.920;6.936;2022-12-29T16:50:42;9.50;99.90
2459;DHT22;1241;50.920;6.936;2022-12-29T16:55:47;9.50;99.90
2459;DHT22;1241;50.920;6.936;2022-12-29T16:58:18;9.50;99.90
2459;DHT22;1241;50.920;6.936;2022-12-29T17:00:45;9.50;99.90
2459;DHT22;1241;50.920;6.936;2022-12-29T17:03:12;9.40;99.90
2459;DHT22;1241;50.920;6.936;2022-12-29T17:05:38;9.40;99.90
2459;DHT22;1241;50.920;6.936;2022-12-29T17:08:16;9.20;99.90
2459;DHT22;1241;50.920;6.936;2022-12-29T17:10:49;9.20;99.90
2459;DHT22;1241;50.920;6.936;2022-12-29T17:13:35;9.20;99.90
2459;DHT22;1241;50.920;6.936;2022-12-29T17:16:00;9.10;99.90
2459;DHT22;1241;50.920;6.936;2022-12-29T17:18:26;9.20;99.90
2459;DHT22;1241;50.920;6.936;2022-12-29T17:20:52;9.20;99.90
2459;DHT22;1241;50.920;6.936;2022-12-29T17:23:18;9.30;99.90
2459;DHT22;1241;50.920;6.936;2022-12-29T17:25:43;9.30;99.90
2459;DHT22;1241;50.920;6.936;2022-12-29T17:30:35;9.40;99.90
2459;DHT22;1241;50.920;6.936;2022-12-29T17:33:06;9.50;99.90
2459;DHT22;1241;50.920;6.936;2022-12-29T17:35:33;9.60;99.90
2459;DHT22;1241;50.920;6.936;2022-12-29T17:37:59;9.60;99.90
2459;DHT22;1241;50.920;6.936;2022-12-29T17:40:29;9.60;99.90
2459;DHT22;1241;50.920;6.936;2022-12-29T17:42:58;9.60;99.90
2459;DHT22;1241;50.920;6.936;2022-12-29T17:45:28;9.60;99.90
2459;DHT22;1241;50.920;6.936;2022-12-29T17:47:54;9.60;99.90
2459;DHT22;1241;50.920;6.936;2022-12-29T17:50:23;9.50;99.90
2459;DHT22;1241;50.920;6.936;2022-12-29T17:52:55;9.50;99.90
2459;DHT22;1241;50.920;6.936;2022-12-29T17:55:22;9.40;99.90
2459;DHT22;1241;50.920;6.936;2022-12-29T17:57:49;9.40;99.90
2459;DHT22;1241;50.920;6.936;2022-12-29T18:00:17;9.30;99.90
2459;DHT22;1241;50.920;6.936;2022-12-29T18:02:44;9.30;99.90
2459;DHT22;1241;50.920;6.936;2022-12-29T18:05:17;9.30;99.90
2459;DHT22;1241;50.920;6.936;2022-12-29T18:07:43;9.20;99.90
2459;DHT22;1241;50.920;6.936;2022-12-29T18:10:09;9.30;99.90
2459;DHT22;1241;50.920;6.936;2022-12-29T18:12:38;9.30;99.90
2459;DHT22;1241;50.920;6.936;2022-12-29T18:15:06;9.40;99.90
2459;DHT22;1241;50.920;6.936;2022-12-29T18:17:32;9.50;99.90
2459;DHT22;1241;50.920;6.936;2022-12-29T18:19:58;9.70;99.90
2459;DHT22;1241;50.920;6.936;2022-12-29T18:22:25;9.80;99.90
2459;DHT22;1241;50.920;6.936;2022-12-29T18:24:54;9.90;99.90
2459;DHT22;1241;50.920;6.936;2022-12-29T18:27:20;10.00;99.90
2459;DHT22;1241;50.920;6.936;2022-12-29T18:29:47;10.10;99.90
2459;DHT22;1241;50.920;6.936;2022-12-29T18:32:14;10.10;99.90
2459;DHT22;1241;50.920;6.936;2022-12-29T18:34:41;10.00;99.90
2459;DHT22;1241;50.920;6.936;2022-12-29T18:37:08;10.00;99.90
2459;DHT22;1241;50.920;6.936;2022-12-29T18:39:34;10.00;99.90
2459;DHT22;1241;50.920;6.936;2022-12-29T18:42:03;10.00;99.90
2459;DHT22;1241;50.920;6.936;2022-12-29T18:44:30;9.90;99.90
2459;DHT22;1241;50.920;6.936;2022-12-29T18:46:56;9.80;99.90
2459;DHT22;1241;50.920;6.936;2022-12-29T18:49:22;9.80;99.90
2459;DHT22;1241;50.920;6.936;2022-12-29T18:51:48;9.70;99.90
2459;DHT22;1241;50.920;6.936;2022-12-29T18:54:30;9.60;99.90
2459;DHT22;1241;50.920;6.936;2022-12-29T18:56:56;9.60;99.90
2459;DHT22;1241;50.920;6.936;2022-12-29T18:59:22;9.60;99.90
2459;DHT22;1241;50.920;6.936;2022-12-29T19:01:48;9.60;99.90
2459;DHT22;1241;50.920;6.936;2022-12-29T19:04:14;9.70;99.90
2459;DHT22;1241;50.920;6.936;2022-12-29T19:06:40;9.80;99.90
2459;DHT22;1241;50.920;6.936;2022-12-29T19:09:07;9.80;99.90
2459;DHT22;1241;50.920;6.936;2022-12-29T19:11:33;9.90;99.90
2459;DHT22;1241;50.920;6.936;2022-12-29T19:13:58;9.90;99.90